Time;durP1;ratioP1;P1;durP2;ratioP2;P2;SDS_P1;SDS_P2;PMS_P1;PMS_P2;Temp;Humidity;BMP_temperature;BMP_pressure;BME280_temperature;BME280_humidity;BME280_pressure;Samples;Min_cycle;Max_cycle;Signal;HPM_P1;HPM_P2
2021/05/28 00:00:14;;;;;;;22.13;6.03;;;17.70;88.80;;;;;;5033340;28;20048;-69
2021/05/28 00:03:18;;;;;;;15.73;5.97;;;17.70;88.80;;;;;;5033200;28;20048;-69
2021/05/28 00:06:22;;;;;;;17.65;6.30;;;17.70;88.50;;;;;;5033223;28;20049;-68
2021/05/28 00:09:26;;;;;;;24.60;6.45;;;17.70;88.50;;;;;;5033078;28;20425;-68
2021/05/28 00:12:30;;;;;;;22.27;6.47;;;17.60;88.50;;;;;;5032814;28;20056;-68
2021/05/28 00:15:34;;;;;;;16.17;6.05;;;17.60;89.10;;;;;;5033015;28;20057;-68
2021/05/28 00:18:39;;;;;;;14.35;5.88;;;17.60;88.80;;;;;;5033006;28;20044;-68
2021/05/28 00:21:43;;;;;;;19.90;5.78;;;17.60;88.40;;;;;;5021144;28;20056;-68
2021/05/28 00:34:17;;;;;;;11.50;4.88;;;17.10;90.20;;;;;;5032774;28;20041;-69
2021/05/28 00:37:21;;;;;;;9.45;5.25;;;16.90;90.50;;;;;;5033097;28;20108;-69
2021/05/28 00:40:25;;;;;;;18.50;5.40;;;17.00;90.50;;;;;;5033009;28;20044;-70
2021/05/28 00:43:29;;;;;;;13.38;5.43;;;17.10;90.20;;;;;;5033004;28;20040;-68
2021/05/28 00:46:33;;;;;;;10.25;4.50;;;17.00;89.90;;;;;;5036629;28;20045;-68
2021/05/28 00:49:37;;;;;;;16.10;4.90;;;17.00;90.00;;;;;;5036542;28;20033;-69
2021/05/28 00:52:42;;;;;;;14.55;4.82;;;17.10;89.60;;;;;;5036716;28;20044;-69
2021/05/28 00:55:46;;;;;;;14.15;3.90;;;17.30;88.00;;;;;;5035629;28;20052;-69
2021/05/28 00:58:57;;;;;;;10.20;4.07;;;17.30;87.20;;;;;;5036821;28;20049;-68
2021/05/28 01:02:03;;;;;;;13.43;4.85;;;17.30;87.30;;;;;;5036412;28;20053;-68
2021/05/28 01:05:07;;;;;;;14.30;4.65;;;17.30;86.90;;;;;;5036136;28;20045;-68
2021/05/28 01:08:11;;;;;;;13.82;4.18;;;17.30;87.00;;;;;;5036334;28;20045;-69
2021/05/28 01:11:15;;;;;;;9.55;3.92;;;17.40;87.10;;;;;;5024078;28;20044;-68
2021/05/28 01:14:19;;;;;;;9.18;4.28;;;17.50;86.70;;;;;;5036390;28;20076;-69
2021/05/28 01:17:23;;;;;;;9.30;3.95;;;17.50;87.00;;;;;;5036134;28;20056;-68
2021/05/28 01:20:28;;;;;;;10.07;3.72;;;17.50;87.40;;;;;;5035007;28;20056;-68
2021/05/28 01:23:32;;;;;;;12.38;4.05;;;17.40;87.50;;;;;;5036294;28;20048;-69
2021/05/28 01:26:36;;;;;;;10.00;3.50;;;17.50;88.00;;;;;;5035953;28;20040;-69
2021/05/28 01:29:40;;;;;;;12.93;3.10;;;17.40;87.90;;;;;;5036149;28;20045;-69
2021/05/28 01:32:45;;;;;;;13.60;3.60;;;17.50;87.70;;;;;;5034778;28;20044;-68
2021/05/28 01:35:49;;;;;;;8.20;3.60;;;17.50;87.30;;;;;;5035813;28;20053;-69
2021/05/28 01:38:53;;;;;;;9.50;3.47;;;17.40;87.30;;;;;;5035469;28;20144;-69
2021/05/28 01:41:57;;;;;;;12.48;3.40;;;17.20;87.80;;;;;;5035840;28;20044;-68
2021/05/28 01:45:03;;;;;;;15.05;3.70;;;17.00;89.50;;;;;;5035646;28;20048;-68
2021/05/28 01:48:07;;;;;;;16.10;3.75;;;16.90;89.40;;;;;;5035810;28;20060;-69
2021/05/28 01:51:11;;;;;;;15.88;3.50;;;16.90;90.00;;;;;;5035434;28;20044;-68
2021/05/28 01:54:16;;;;;;;10.88;3.55;;;16.70;90.00;;;;;;5035297;28;20045;-69
2021/05/28 01:57:20;;;;;;;13.55;3.35;;;16.60;90.30;;;;;;5035461;28;20516;-68
2021/05/28 02:00:24;;;;;;;10.27;3.35;;;16.50;90.50;;;;;;5035312;28;20052;-68
2021/05/28 02:03:29;;;;;;;9.82;3.40;;;16.40;91.10;;;;;;5035240;28;20036;-68
2021/05/28 02:06:33;;;;;;;10.00;3.38;;;16.60;90.60;;;;;;5035207;28;20385;-69
2021/05/28 02:09:37;;;;;;;9.25;3.08;;;16.70;90.20;;;;;;5035152;28;20040;-69
2021/05/28 02:12:41;;;;;;;10.38;3.90;;;16.50;90.30;;;;;;5034690;28;20060;-67
2021/05/28 02:15:48;;;;;;;10.43;3.20;;;16.60;90.20;;;;;;5035151;28;20052;-69
2021/05/28 02:18:51;;;;;;;10.73;3.13;;;16.40;90.10;;;;;;5035338;28;20049;-68
2021/05/28 02:21:55;;;;;;;12.75;3.25;;;16.30;90.40;;;;;;5034756;28;20385;-69
2021/05/28 02:25:00;;;;;;;6.65;3.35;;;16.20;90.50;;;;;;5035207;28;20511;-69
2021/05/28 02:28:04;;;;;;;16.08;3.38;;;16.20;90.60;;;;;;5034611;28;20056;-68
2021/05/28 02:31:08;;;;;;;8.85;3.85;;;16.10;90.90;;;;;;5035092;28;20381;-69
2021/05/28 02:34:12;;;;;;;8.95;3.47;;;16.10;91.00;;;;;;5035002;28;20044;-68
2021/05/28 02:37:16;;;;;;;8.25;2.92;;;16.10;91.00;;;;;;5034702;28;20064;-69
2021/05/28 02:40:21;;;;;;;8.75;3.10;;;16.20;90.80;;;;;;5034939;28;20045;-69
2021/05/28 02:43:25;;;;;;;12.07;3.45;;;16.40;90.40;;;;;;5034795;28;20052;-68
2021/05/28 02:46:31;;;;;;;9.52;3.20;;;16.50;90.10;;;;;;5034575;28;20040;-69
2021/05/28 02:49:36;;;;;;;11.63;3.30;;;16.50;90.00;;;;;;5034221;28;20386;-69
2021/05/28 02:52:40;;;;;;;8.48;3.33;;;16.50;90.10;;;;;;5034661;28;20040;-69
2021/05/28 02:55:45;;;;;;;13.68;3.50;;;16.40;90.20;;;;;;5034033;28;20056;-70
2021/05/28 02:58:48;;;;;;;15.02;3.67;;;16.30;90.40;;;;;;5034506;28;20377;-68
2021/05/28 03:01:53;;;;;;;12.32;3.88;;;16.30;90.40;;;;;;5034242;28;20052;-68
2021/05/28 03:04:57;;;;;;;8.00;3.38;;;16.30;90.60;;;;;;5034197;28;20100;-68
2021/05/28 03:08:01;;;;;;;10.90;4.03;;;16.40;90.30;;;;;;5033361;28;20056;-68
2021/05/28 03:11:05;;;;;;;8.30;3.28;;;16.30;90.20;;;;;;5033815;28;20053;-69
2021/05/28 03:14:09;;;;;;;9.05;3.10;;;16.20;90.40;;;;;;5033990;28;20056;-68
2021/05/28 03:17:13;;;;;;;16.92;4.18;;;16.10;90.60;;;;;;5033917;28;20481;-68
2021/05/28 03:20:34;;;;;;;8.82;3.35;;;16.10;90.70;;;;;;5033825;28;20052;-68
2021/05/28 03:23:38;;;;;;;11.60;3.47;;;16.20;90.60;;;;;;5034020;28;20052;-68
2021/05/28 03:26:42;;;;;;;12.35;4.00;;;16.10;90.60;;;;;;5033802;28;20040;-68
2021/05/28 03:29:46;;;;;;;11.05;4.00;;;16.10;90.40;;;;;;5033097;28;20044;-68
2021/05/28 03:32:50;;;;;;;10.93;3.20;;;16.10;90.50;;;;;;5033950;28;20044;-68
2021/05/28 03:35:54;;;;;;;9.48;3.65;;;16.00;90.40;;;;;;5033280;28;20052;-69
2021/05/28 03:38:58;;;;;;;14.23;4.20;;;16.00;90.50;;;;;;5033822;28;20053;-69
2021/05/28 03:42:02;;;;;;;12.75;3.70;;;15.90;90.50;;;;;;5033626;28;20056;-69
2021/05/28 03:45:07;;;;;;;10.65;4.28;;;15.80;90.80;;;;;;5033474;28;20045;-69
2021/05/28 03:48:11;;;;;;;10.68;3.38;;;15.80;91.10;;;;;;5033434;28;20048;-69
2021/05/28 03:51:15;;;;;;;23.45;4.60;;;15.90;91.00;;;;;;5033654;28;20484;-68
2021/05/28 03:54:20;;;;;;;21.15;4.35;;;16.00;90.90;;;;;;5033550;28;20040;-69
2021/05/28 03:57:25;;;;;;;12.38;3.70;;;15.90;90.60;;;;;;5033582;28;20068;-70
2021/05/28 04:00:29;;;;;;;11.40;3.60;;;15.90;90.70;;;;;;5033461;28;20465;-68
2021/05/28 04:03:33;;;;;;;15.57;4.32;;;16.00;90.60;;;;;;5033515;28;20048;-69
2021/05/28 04:06:37;;;;;;;7.78;4.05;;;16.00;90.60;;;;;;5032992;28;20044;-69
2021/05/28 04:09:41;;;;;;;10.52;3.88;;;16.10;90.60;;;;;;5033386;28;20056;-68
2021/05/28 04:12:45;;;;;;;13.00;5.10;;;16.10;90.50;;;;;;5032610;28;20062;-68
2021/05/28 04:15:49;;;;;;;17.48;4.80;;;16.20;90.40;;;;;;5031922;28;20408;-69
2021/05/28 04:18:52;;;;;;;16.65;5.00;;;16.30;90.30;;;;;;5037946;28;20048;-69
2021/05/28 04:21:56;;;;;;;14.57;4.25;;;16.40;90.20;;;;;;5039721;28;20044;-70
2021/05/28 04:25:01;;;;;;;14.90;4.95;;;16.50;89.90;;;;;;5039020;28;20091;-69
2021/05/28 04:28:06;;;;;;;17.48;4.28;;;16.60;89.80;;;;;;5039901;28;20040;-70
2021/05/28 04:31:10;;;;;;;19.73;4.85;;;16.70;89.80;;;;;;5038813;28;20044;-69
2021/05/28 04:34:13;;;;;;;20.73;5.95;;;16.80;89.60;;;;;;5039892;28;20057;-69
2021/05/28 04:37:17;;;;;;;24.13;5.80;;;17.20;89.10;;;;;;5039794;28;20480;-69
2021/05/28 04:40:21;;;;;;;13.93;4.50;;;17.90;86.80;;;;;;5039785;28;20460;-68
2021/05/28 04:43:25;;;;;;;9.85;3.42;;;18.70;84.20;;;;;;5039709;28;20044;-70
2021/05/28 04:46:29;;;;;;;14.75;3.95;;;19.40;81.10;;;;;;5039647;28;20040;-68
2021/05/28 04:49:33;;;;;;;14.52;4.80;;;20.10;78.70;;;;;;5039379;28;20493;-69
2021/05/28 04:52:38;;;;;;;10.25;4.20;;;20.70;76.20;;;;;;5039535;28;20044;-70
2021/05/28 04:55:43;;;;;;;11.90;4.60;;;21.00;75.70;;;;;;5039289;28;20056;-70
2021/05/28 04:58:47;;;;;;;12.50;5.13;;;21.00;74.90;;;;;;5039508;28;20373;-70
2021/05/28 05:01:51;;;;;;;19.70;5.68;;;20.90;75.60;;;;;;5039472;28;20052;-69
2021/05/28 05:04:55;;;;;;;19.20;5.30;;;20.70;76.50;;;;;;5039194;28;20048;-69
2021/05/28 05:07:59;;;;;;;14.43;5.35;;;20.70;75.90;;;;;;5039221;28;20480;-70
2021/05/28 05:11:04;;;;;;;16.33;5.15;;;20.70;76.50;;;;;;5038582;28;20048;-69
2021/05/28 05:14:08;;;;;;;16.55;5.35;;;20.70;76.90;;;;;;5039409;28;20052;-68
2021/05/28 05:17:12;;;;;;;16.20;5.18;;;20.40;77.50;;;;;;5039464;28;20365;-69
2021/05/28 05:20:15;;;;;;;25.33;5.22;;;20.50;77.60;;;;;;5039136;28;20048;-69
2021/05/28 05:23:19;;;;;;;21.27;5.72;;;20.40;77.30;;;;;;5039171;28;20060;-68
2021/05/28 05:26:24;;;;;;;16.20;5.15;;;20.10;77.40;;;;;;5039436;28;20048;-69
2021/05/28 05:29:28;;;;;;;15.75;4.88;;;20.00;78.00;;;;;;5037220;28;20113;-69
2021/05/28 05:32:32;;;;;;;14.32;5.05;;;20.10;78.50;;;;;;5035180;28;20032;-68
2021/05/28 05:35:35;;;;;;;21.25;5.43;;;20.20;78.80;;;;;;5035964;28;20041;-69
2021/05/28 05:43:24;;;;;;;15.65;5.10;;;21.10;75.70;;;;;;5035649;28;20044;-69
2021/05/28 05:46:29;;;;;;;15.80;5.22;;;21.30;74.70;;;;;;5035659;28;20040;-69
2021/05/28 05:49:36;;;;;;;17.20;4.70;;;21.50;74.40;;;;;;5035848;28;20044;-69
2021/05/28 05:52:40;;;;;;;24.63;4.75;;;21.70;74.10;;;;;;5035669;28;20045;-69
2021/05/28 05:55:45;;;;;;;15.15;4.47;;;21.90;73.20;;;;;;5035599;28;20056;-70
2021/05/28 05:58:49;;;;;;;22.08;6.45;;;22.00;72.80;;;;;;5035372;28;20041;-70
2021/05/28 06:01:54;;;;;;;27.50;12.05;;;22.10;72.30;;;;;;5035154;28;20464;-70
2021/05/28 06:04:59;;;;;;;30.10;9.15;;;22.50;72.00;;;;;;5033908;28;20045;-69
2021/05/28 06:08:04;;;;;;;26.27;6.82;;;22.70;71.10;;;;;;5035321;28;20121;-70
2021/05/28 06:11:08;;;;;;;28.55;5.93;;;22.90;70.90;;;;;;5034893;28;20049;-69
2021/05/28 06:14:15;;;;;;;14.38;4.25;;;23.10;71.10;;;;;;5034494;28;20527;-68
2021/05/28 06:17:20;;;;;;;13.02;4.43;;;23.20;70.50;;;;;;5034835;28;20503;-69
2021/05/28 06:20:25;;;;;;;17.90;5.20;;;23.50;69.60;;;;;;5034247;28;20373;-69
2021/05/28 06:23:28;;;;;;;22.27;4.65;;;23.70;69.60;;;;;;5034167;28;20172;-70
2021/05/28 06:26:32;;;;;;;20.65;4.90;;;23.90;68.50;;;;;;5034709;28;20037;-72
2021/05/28 06:29:36;;;;;;;31.65;5.65;;;24.00;68.40;;;;;;5034688;28;20040;-72
2021/05/28 06:32:40;;;;;;;19.55;4.72;;;24.10;68.80;;;;;;5034794;28;20044;-70
2021/05/28 06:35:44;;;;;;;14.50;3.58;;;24.20;68.10;;;;;;5034397;28;20061;-70
2021/05/28 06:38:48;;;;;;;12.35;4.00;;;24.10;66.20;;;;;;5034278;28;20049;-69
2021/05/28 06:41:52;;;;;;;15.90;4.95;;;24.20;65.90;;;;;;5032662;28;20044;-73
2021/05/28 06:44:56;;;;;;;22.27;4.70;;;24.40;65.60;;;;;;5034540;28;20040;-70
2021/05/28 06:48:01;;;;;;;15.82;3.80;;;24.80;65.50;;;;;;5033749;28;20377;-70
2021/05/28 06:51:05;;;;;;;12.52;3.83;;;25.10;63.90;;;;;;5034194;28;20385;-71
2021/05/28 06:54:10;;;;;;;14.68;3.70;;;25.20;63.50;;;;;;5033339;28;20040;-71
2021/05/28 06:57:14;;;;;;;12.35;3.28;;;24.80;63.40;;;;;;5034033;28;20052;-73
2021/05/28 07:00:18;;;;;;;13.77;3.67;;;24.80;65.70;;;;;;5034211;28;20481;-71
2021/05/28 07:03:23;;;;;;;17.20;3.20;;;24.70;66.10;;;;;;5033803;28;20048;-68
2021/05/28 07:06:29;;;;;;;19.23;3.10;;;24.90;64.00;;;;;;5034388;28;20040;-71
2021/05/28 07:09:33;;;;;;;13.43;3.35;;;25.10;62.20;;;;;;5034196;28;20076;-73
2021/05/28 07:12:37;;;;;;;9.63;3.33;;;25.40;60.90;;;;;;5033698;28;20053;-72
2021/05/28 07:15:40;;;;;;;13.18;3.75;;;25.60;61.50;;;;;;5033151;28;20055;-71
2021/05/28 07:18:44;;;;;;;9.63;2.88;;;25.60;60.00;;;;;;5033786;28;20155;-71
2021/05/28 07:21:49;;;;;;;11.73;2.85;;;25.60;60.00;;;;;;5033671;28;20044;-71
2021/05/28 07:24:53;;;;;;;12.05;2.97;;;25.40;59.70;;;;;;5033824;28;20056;-71
2021/05/28 07:27:58;;;;;;;13.70;3.28;;;25.30;61.10;;;;;;5033917;28;20048;-71
2021/05/28 07:31:03;;;;;;;11.13;2.42;;;25.50;60.50;;;;;;5033690;28;20366;-72
2021/05/28 07:34:07;;;;;;;11.07;2.45;;;25.70;59.60;;;;;;5032750;28;20464;-72
2021/05/28 07:37:11;;;;;;;14.52;2.70;;;26.00;58.20;;;;;;5033401;28;20056;-72
2021/05/28 07:40:16;;;;;;;15.73;2.80;;;26.00;56.80;;;;;;5033441;28;20413;-71
2021/05/28 07:43:20;;;;;;;28.52;3.45;;;25.90;57.20;;;;;;5033656;28;20044;-72
2021/05/28 07:46:24;;;;;;;16.83;2.83;;;26.10;57.40;;;;;;5033609;28;20045;-71
2021/05/28 07:49:28;;;;;;;12.15;2.38;;;26.50;56.50;;;;;;5033660;28;20496;-71
2021/05/28 07:52:32;;;;;;;16.67;4.22;;;26.60;55.60;;;;;;5033209;28;20044;-72
2021/05/28 07:55:36;;;;;;;20.55;3.38;;;26.80;56.40;;;;;;5033374;28;20048;-71
2021/05/28 07:58:40;;;;;;;26.60;4.25;;;27.00;56.90;;;;;;5033622;28;20053;-72
2021/05/28 08:01:45;;;;;;;22.42;3.67;;;27.20;58.10;;;;;;5033452;28;20040;-72
2021/05/28 08:04:49;;;;;;;18.42;2.95;;;27.40;57.90;;;;;;5033100;28;20048;-72
2021/05/28 08:07:55;;;;;;;16.38;3.80;;;27.50;57.60;;;;;;5033445;28;20048;-73
2021/05/28 08:11:00;;;;;;;14.18;2.95;;;27.60;58.50;;;;;;5032913;28;20040;-70
2021/05/28 08:14:04;;;;;;;10.38;3.15;;;27.80;58.10;;;;;;5032415;28;20049;-72
2021/05/28 08:17:08;;;;;;;14.13;3.30;;;27.80;56.70;;;;;;5033295;28;20052;-71
2021/05/28 08:20:13;;;;;;;21.08;3.53;;;27.80;56.80;;;;;;5033042;28;20053;-71
2021/05/28 08:23:16;;;;;;;11.00;2.63;;;27.70;55.80;;;;;;5032926;28;20113;-72
2021/05/28 08:26:20;;;;;;;24.55;4.40;;;27.70;56.30;;;;;;5032111;28;20385;-72
2021/05/28 08:29:24;;;;;;;19.20;3.22;;;27.70;56.20;;;;;;5032701;28;20044;-72
2021/05/28 08:32:28;;;;;;;16.58;3.50;;;27.70;55.90;;;;;;5033081;28;20040;-72
2021/05/28 08:35:33;;;;;;;15.52;3.13;;;27.80;56.70;;;;;;5020688;28;20049;-72
2021/05/28 08:38:37;;;;;;;13.60;4.18;;;28.00;55.00;;;;;;5032038;28;20052;-72
2021/05/28 08:41:43;;;;;;;23.75;4.45;;;28.10;54.70;;;;;;5033139;28;20048;-73
2021/05/28 08:44:49;;;;;;;12.63;3.50;;;28.30;54.90;;;;;;5032979;28;20052;-72
2021/05/28 08:47:53;;;;;;;15.77;4.10;;;28.40;55.30;;;;;;5032749;28;20057;-72
2021/05/28 08:50:57;;;;;;;10.23;2.53;;;28.40;53.80;;;;;;5032358;28;20045;-74
2021/05/28 08:54:02;;;;;;;11.02;2.72;;;28.40;54.30;;;;;;5033013;28;20048;-72
2021/05/28 08:57:06;;;;;;;13.25;3.30;;;28.30;53.30;;;;;;5032755;28;20056;-74
2021/05/28 09:00:11;;;;;;;14.68;3.70;;;28.10;52.50;;;;;;5032687;28;20045;-72
2021/05/28 09:03:27;;;;;;;11.45;3.10;;;28.10;52.20;;;;;;5032837;28;20052;-70
2021/05/28 09:06:42;;;;;;;17.17;4.03;;;27.90;53.30;;;;;;5036042;28;20045;-74
2021/05/28 09:09:47;;;;;;;18.80;3.72;;;27.90;54.90;;;;;;5036118;28;20048;-73
2021/05/28 09:12:51;;;;;;;18.77;3.83;;;27.90;56.40;;;;;;5035710;28;20045;-72
2021/05/28 09:16:08;;;;;;;22.40;4.15;;;28.00;56.20;;;;;;5035583;28;20044;-70
2021/05/28 09:19:12;;;;;;;17.48;3.85;;;28.10;56.50;;;;;;5036451;28;20052;-71
2021/05/28 09:22:16;;;;;;;22.42;3.42;;;28.20;57.20;;;;;;5036200;28;20105;-75
2021/05/28 09:25:23;;;;;;;13.32;2.85;;;28.30;55.60;;;;;;5036152;28;20052;-74
2021/05/28 09:28:29;;;;;;;23.55;3.80;;;28.40;56.30;;;;;;5034910;28;20053;-73
2021/05/28 09:31:34;;;;;;;11.85;2.80;;;28.50;55.80;;;;;;5035962;28;20372;-71
2021/05/28 09:34:50;;;;;;;14.60;3.40;;;28.50;54.00;;;;;;5036094;28;20076;-70
2021/05/28 09:37:54;;;;;;;10.48;3.50;;;28.50;54.30;;;;;;5035293;28;20048;-70
2021/05/28 09:40:58;;;;;;;11.82;3.13;;;28.60;53.60;;;;;;5035572;28;20049;-71
2021/05/28 09:44:22;;;;;;;12.25;3.33;;;28.50;53.60;;;;;;5035922;28;20497;-75
2021/05/28 09:47:26;;;;;;;14.63;3.30;;;28.50;54.10;;;;;;5035774;28;20060;-73
2021/05/28 09:50:34;;;;;;;8.20;2.45;;;28.50;53.90;;;;;;5036031;28;20054;-71
2021/05/28 09:53:43;;;;;;;8.38;2.75;;;28.40;53.50;;;;;;5035363;28;20048;-75
2021/05/28 09:56:47;;;;;;;12.10;3.08;;;28.30;54.80;;;;;;5035699;28;20405;-73
2021/05/28 09:59:52;;;;;;;13.27;2.97;;;28.40;54.30;;;;;;5035311;28;20040;-73
2021/05/28 10:03:31;;;;;;;18.40;3.20;;;28.40;54.50;;;;;;5035407;28;20044;-75
2021/05/28 10:06:41;;;;;;;13.70;3.50;;;28.40;53.70;;;;;;5014390;28;20483;-73
2021/05/28 10:09:47;;;;;;;11.90;2.72;;;28.40;54.20;;;;;;5035527;28;20040;-74
2021/05/28 10:12:51;;;;;;;13.52;3.53;;;28.40;53.60;;;;;;5034683;28;20520;-74
2021/05/28 10:15:57;;;;;;;15.65;3.63;;;28.30;53.70;;;;;;5034742;28;20129;-73
2021/05/28 10:19:02;;;;;;;17.23;4.03;;;28.20;54.20;;;;;;5034467;28;20048;-70
2021/05/28 10:22:07;;;;;;;9.82;2.78;;;28.30;55.10;;;;;;5034833;28;20040;-74
2021/05/28 10:25:12;;;;;;;21.40;3.90;;;28.30;55.30;;;;;;5034226;28;20045;-75
2021/05/28 10:28:21;;;;;;;11.63;3.28;;;28.20;55.10;;;;;;5034991;28;20494;-73
2021/05/28 10:31:50;;;;;;;13.30;3.03;;;28.20;55.20;;;;;;5034915;28;20049;-73
2021/05/28 10:35:05;;;;;;;12.07;3.20;;;28.20;55.10;;;;;;5034771;28;20056;-72
2021/05/28 10:38:36;;;;;;;17.65;3.67;;;28.30;54.60;;;;;;5034774;28;20136;-72
2021/05/28 10:41:48;;;;;;;17.33;3.45;;;28.20;54.60;;;;;;5041552;28;20063;-75
2021/05/28 10:44:52;;;;;;;11.77;3.35;;;28.20;55.00;;;;;;5034747;28;20044;-76
2021/05/28 10:47:56;;;;;;;11.52;3.00;;;28.20;54.40;;;;;;5033471;28;20045;-73
2021/05/28 10:51:00;;;;;;;11.98;3.20;;;28.10;54.40;;;;;;5033504;28;20048;-74
2021/05/28 10:54:04;;;;;;;15.13;3.58;;;28.00;54.30;;;;;;5034562;28;20048;-75
2021/05/28 10:57:32;;;;;;;9.75;2.80;;;28.00;55.00;;;;;;5034304;28;20388;-71
2021/05/28 11:00:40;;;;;;;9.73;2.88;;;27.90;54.40;;;;;;5033464;28;20044;-69
2021/05/28 11:08:37;;;;;;;12.20;3.50;;;27.80;53.40;;;;;;5034262;28;20037;-73
2021/05/28 11:11:41;;;;;;;13.52;3.90;;;27.60;54.00;;;;;;5034073;28;20057;-72
2021/05/28 11:15:09;;;;;;;8.02;3.05;;;27.60;54.60;;;;;;5023466;28;20052;-73
2021/05/28 11:18:13;;;;;;;10.43;2.83;;;27.70;54.90;;;;;;5033918;28;20052;-71
2021/05/28 11:21:20;;;;;;;17.85;4.07;;;27.70;54.10;;;;;;5033806;28;20385;-72
2021/05/28 11:24:58;;;;;;;11.30;3.25;;;27.60;53.70;;;;;;5033813;28;20052;-73
2021/05/28 11:28:05;;;;;;;10.20;3.20;;;27.50;53.60;;;;;;5032904;28;20040;-73
2021/05/28 11:31:11;;;;;;;10.43;3.10;;;27.50;53.90;;;;;;5033858;28;20504;-72
2021/05/28 11:34:15;;;;;;;20.33;5.88;;;27.60;54.60;;;;;;5033549;28;20036;-71
2021/05/28 11:37:38;;;;;;;13.07;3.63;;;27.70;54.10;;;;;;5033523;28;20400;-71
2021/05/28 11:40:43;;;;;;;16.13;3.38;;;27.60;53.60;;;;;;5033727;28;20472;-73
2021/05/28 11:43:47;;;;;;;17.00;4.10;;;27.60;53.10;;;;;;5032652;28;20117;-71
2021/05/28 11:46:52;;;;;;;10.68;3.40;;;27.50;54.10;;;;;;5033265;28;20040;-69
2021/05/28 11:49:57;;;;;;;16.05;3.85;;;27.50;54.60;;;;;;5033430;28;20052;-69
2021/05/28 11:53:04;;;;;;;12.88;3.45;;;27.50;53.20;;;;;;5033256;28;20032;-69
2021/05/28 11:56:09;;;;;;;14.02;3.70;;;27.40;51.90;;;;;;5033499;28;20052;-69
2021/05/28 11:59:13;;;;;;;7.82;3.53;;;27.30;52.60;;;;;;5033335;28;20444;-69
2021/05/28 12:02:40;;;;;;;7.85;3.35;;;27.20;51.50;;;;;;5033059;28;20037;-71
2021/05/28 12:05:46;;;;;;;9.63;3.28;;;27.20;52.90;;;;;;5032143;28;20116;-74
2021/05/28 12:08:51;;;;;;;11.52;3.65;;;27.30;52.00;;;;;;5032575;28;20044;-71
2021/05/28 12:11:58;;;;;;;6.65;2.85;;;27.40;51.70;;;;;;5033101;28;20060;-72
2021/05/28 12:15:09;;;;;;;7.60;3.05;;;27.40;51.50;;;;;;5032919;28;20053;-73
2021/05/28 12:18:23;;;;;;;7.68;2.63;;;27.40;51.10;;;;;;5031863;28;20512;-73
2021/05/28 12:21:27;;;;;;;9.68;3.00;;;27.50;50.10;;;;;;5033359;28;20048;-75
2021/05/28 12:24:31;;;;;;;10.55;3.63;;;27.60;54.70;;;;;;5033002;28;20048;-70
2021/05/28 12:27:38;;;;;;;13.60;3.60;;;27.70;57.70;;;;;;5032959;28;20044;-75
2021/05/28 12:30:45;;;;;;;13.07;4.03;;;27.70;59.10;;;;;;5032661;28;20381;-71
2021/05/28 12:34:10;;;;;;;24.55;4.78;;;27.70;59.70;;;;;;5033012;28;20056;-72
2021/05/28 12:37:15;;;;;;;19.90;4.25;;;27.80;60.30;;;;;;5031977;28;20060;-72
2021/05/28 12:40:21;;;;;;;12.82;3.47;;;27.80;60.10;;;;;;5035007;28;20048;-70
2021/05/28 12:43:28;;;;;;;11.07;3.25;;;27.80;59.30;;;;;;5036128;28;20056;-71
2021/05/28 12:46:33;;;;;;;10.52;2.95;;;27.80;59.80;;;;;;5037157;28;20056;-72
2021/05/28 12:49:37;;;;;;;15.23;3.88;;;27.80;60.20;;;;;;5036918;28;20040;-71
2021/05/28 12:52:41;;;;;;;13.57;3.80;;;27.80;60.20;;;;;;5037032;28;20504;-71
2021/05/28 12:55:55;;;;;;;7.65;3.22;;;27.80;59.70;;;;;;5036924;28;20488;-71
2021/05/28 12:58:59;;;;;;;18.83;4.55;;;27.80;58.30;;;;;;5036676;28;20065;-70
2021/05/28 13:02:18;;;;;;;14.02;3.65;;;27.70;58.60;;;;;;5036805;28;20049;-70
2021/05/28 13:05:34;;;;;;;14.18;3.40;;;27.70;58.10;;;;;;5036458;28;20500;-71
2021/05/28 13:08:40;;;;;;;23.90;3.75;;;27.80;58.30;;;;;;5036364;28;20044;-71
2021/05/28 13:11:52;;;;;;;14.43;3.72;;;27.70;58.30;;;;;;5036429;28;20044;-69
2021/05/28 13:14:57;;;;;;;9.27;3.33;;;27.70;58.50;;;;;;5036677;28;20057;-70
2021/05/28 13:18:01;;;;;;;13.35;4.00;;;27.70;58.40;;;;;;5036259;28;20057;-71
2021/05/28 13:21:27;;;;;;;62.65;8.10;;;27.70;58.10;;;;;;5035938;28;20041;-72
2021/05/28 13:24:35;;;;;;;14.77;4.50;;;27.80;58.40;;;;;;5037365;28;20113;-73
2021/05/28 13:27:40;;;;;;;125.32;16.52;;;27.80;58.00;;;;;;5036227;28;20055;-72
2021/05/28 13:31:10;;;;;;;15.52;4.60;;;27.80;57.70;;;;;;5036126;28;20049;-72
2021/05/28 13:34:14;;;;;;;20.42;5.10;;;27.80;57.60;;;;;;5035800;28;20040;-71
2021/05/28 13:42:03;;;;;;;19.13;4.10;;;27.80;57.00;;;;;;5036072;28;20052;-73
2021/05/28 13:45:08;;;;;;;24.45;4.50;;;27.90;57.60;;;;;;5036154;28;20048;-74
2021/05/28 13:48:12;;;;;;;15.82;4.28;;;27.90;57.40;;;;;;5036197;28;20508;-75
2021/05/28 13:51:16;;;;;;;14.00;4.97;;;27.90;58.10;;;;;;5034989;28;20453;-73
2021/05/28 13:54:20;;;;;;;28.67;3.90;;;27.90;58.00;;;;;;5035943;28;20378;-72
2021/05/28 13:57:25;;;;;;;16.73;3.85;;;27.80;58.00;;;;;;5035028;28;20056;-72
2021/05/28 14:00:29;;;;;;;16.25;2.95;;;27.80;58.10;;;;;;5035406;28;20060;-75
2021/05/28 14:03:34;;;;;;;13.57;3.88;;;27.80;58.30;;;;;;5035287;28;20052;-70
2021/05/28 14:06:40;;;;;;;14.10;3.90;;;27.70;58.70;;;;;;5034460;28;20068;-71
2021/05/28 14:09:44;;;;;;;73.60;8.00;;;27.70;59.30;;;;;;5035293;28;20041;-73
2021/05/28 14:12:48;;;;;;;27.92;5.15;;;27.60;58.60;;;;;;5033738;28;20080;-72
2021/05/28 14:15:52;;;;;;;33.78;4.60;;;27.50;59.20;;;;;;5413796;22;20064;-72
2021/05/28 14:18:56;;;;;;;29.08;4.57;;;27.40;59.20;;;;;;5011950;28;20061;-71
2021/05/28 14:22:00;;;;;;;20.85;3.65;;;27.40;58.60;;;;;;5012869;28;20049;-71
2021/05/28 14:25:08;;;;;;;18.17;4.15;;;27.20;59.00;;;;;;5012688;28;20045;-73
2021/05/28 14:28:12;;;;;;;19.00;4.15;;;27.20;58.90;;;;;;5000223;28;20037;-74
2021/05/28 14:31:16;;;;;;;12.00;3.67;;;27.10;59.40;;;;;;5011590;28;20139;-75
2021/05/28 14:34:32;;;;;;;13.30;3.47;;;27.00;59.60;;;;;;5012268;28;20415;-75
2021/05/28 14:37:37;;;;;;;22.13;4.10;;;27.00;59.80;;;;;;5012331;28;20064;-75
2021/05/28 14:40:43;;;;;;;16.27;3.83;;;27.00;60.60;;;;;;5012614;28;20049;-76
2021/05/28 14:43:48;;;;;;;13.60;4.03;;;27.00;61.80;;;;;;5012548;28;20257;-77
2021/05/28 14:46:53;;;;;;;12.27;3.30;;;27.00;60.90;;;;;;5012168;28;20037;-77
2021/05/28 14:49:57;;;;;;;13.02;3.30;;;26.90;60.90;;;;;;5012684;28;20054;-76
2021/05/28 14:53:01;;;;;;;18.77;3.72;;;26.90;62.30;;;;;;5011207;28;20061;-75
2021/05/28 14:56:07;;;;;;;15.90;3.00;;;26.80;61.40;;;;;;5012012;28;20044;-77
2021/05/28 14:59:13;;;;;;;16.05;3.83;;;26.80;61.60;;;;;;5012325;28;20057;-75
2021/05/28 15:02:21;;;;;;;18.38;4.03;;;26.80;61.10;;;;;;5010188;28;20069;-75
2021/05/28 15:05:26;;;;;;;18.73;3.38;;;26.90;60.70;;;;;;5011761;28;20045;-72
2021/05/28 15:08:31;;;;;;;27.80;4.85;;;26.90;60.80;;;;;;5011936;28;20056;-75
2021/05/28 15:11:36;;;;;;;18.40;4.32;;;26.80;61.60;;;;;;5011717;28;20496;-75
2021/05/28 15:14:40;;;;;;;24.35;4.47;;;26.70;62.60;;;;;;5012150;28;20045;-74
2021/05/28 15:17:44;;;;;;;15.10;4.10;;;26.70;62.50;;;;;;5011473;28;20427;-73
2021/05/28 15:20:49;;;;;;;16.15;4.50;;;26.60;61.00;;;;;;5011426;28;20584;-76
2021/05/28 15:23:54;;;;;;;24.73;3.95;;;26.60;60.90;;;;;;5011329;28;20299;-75
2021/05/28 15:26:58;;;;;;;22.15;3.60;;;26.50;60.30;;;;;;5010338;28;20041;-75
2021/05/28 15:30:03;;;;;;;19.80;3.40;;;26.40;60.10;;;;;;5011852;28;20045;-70
2021/05/28 15:33:11;;;;;;;20.40;3.78;;;26.30;60.10;;;;;;5011373;28;20393;-71
2021/05/28 15:36:15;;;;;;;20.60;3.40;;;26.20;60.00;;;;;;5011392;28;20060;-71
2021/05/28 15:39:19;;;;;;;7.95;2.88;;;26.10;61.00;;;;;;5010417;28;20061;-71
2021/05/28 15:42:23;;;;;;;21.98;3.55;;;26.10;61.00;;;;;;5010567;28;20037;-68
2021/05/28 15:45:28;;;;;;;16.67;3.55;;;26.10;61.60;;;;;;5010092;28;20049;-70
2021/05/28 15:48:32;;;;;;;9.38;3.15;;;26.00;60.10;;;;;;5010877;28;20063;-69
2021/05/28 15:51:36;;;;;;;13.43;3.22;;;26.00;60.80;;;;;;5011054;28;20056;-70
2021/05/28 15:54:43;;;;;;;13.63;3.58;;;26.00;60.00;;;;;;5010016;28;20045;-72
2021/05/28 15:57:47;;;;;;;13.50;2.83;;;26.00;59.70;;;;;;5010089;28;20531;-72
2021/05/28 16:00:51;;;;;;;16.35;4.10;;;26.00;59.70;;;;;;5011079;28;20393;-75
2021/05/28 16:03:55;;;;;;;15.32;3.00;;;25.90;60.30;;;;;;5010790;28;20052;-71
2021/05/28 16:06:59;;;;;;;12.65;2.90;;;25.90;60.40;;;;;;5010983;28;20052;-73
2021/05/28 16:10:06;;;;;;;16.63;3.17;;;25.80;60.80;;;;;;5010434;28;20068;-72
2021/05/28 16:13:10;;;;;;;16.42;3.00;;;25.80;59.30;;;;;;5011033;28;20045;-71
2021/05/28 16:16:14;;;;;;;14.60;3.33;;;25.70;59.60;;;;;;5010768;28;20112;-73
2021/05/28 16:19:22;;;;;;;15.77;3.63;;;25.70;60.00;;;;;;5010817;28;20057;-71